Saint Germain, WI

7:02 PM CDT on April 21, 2015 (GMT -0500)
Kings Land O'Lakes | | Change Station
CLOSE
Current Station
Airport
Location: Land O' Lakes,
Elevation: 1706 ft
Nearby Weather Stations

Elev 1706 ft 46.15 °N, 89.21 °W | Updated 32 minutes ago

Partly Cloudy
Partly Cloudy
29 °F
Feels Like 20 °F
N
9
Wind Variable Wind from NW

Today
High -- | Low -- °F
--% Chance of Precip.
Yesterday
High -- | Low -- °F
Precip. -- in
6:01 AM 7:52 PM
Waxing Crescent, 13% visible
Pressure 29.50 in
Visibility 0.2 miles
Clouds Overcast 300 ft
Windchill 20 °F
Dew Point 26 °F
Humidity 90%
Rainfall 0.06 in
Snow Depth Not available.
UV 0 out of 12
Pollen 7.30 out of 12
Air Quality Not available.
Flu Activity Local Activity
METAR KLNL 212330Z AUTO 32008KT 1/4SM SN OVC003 M02/M03 A2950 RMK AO2 T10181033

More Conditions Fewer Conditions

Pressure 29.50 in
Visibility 0.2 miles
Clouds Overcast 300 ft
Windchill 20 °F
Dew Point 26 °F
Humidity 90%
Rainfall 0.06 in
Snow Depth Not available.
UV 0 out of 12
Pollen 7.30 out of 12
Air Quality Not available.
Flu Activity Local Activity
METAR KLNL 212330Z AUTO 32008KT 1/4SM SN OVC003 M02/M03 A2950 RMK AO2 T10181033

More Conditions Fewer Conditions

10-Day Weather Forecast

Almanac

Astronomy

Apr. 21, 2015 Rise Set
Actual Time
Civil Twilight
Nautical Twilight
Astronomical Twilight
Moon
Length of Visible Light
Length of Day
Tomorrow will be .
, % of the Moon is Illuminated

Today's Extremes

State Highs State Lows

Community

WunderPhotos

Upload Photos

1,815,586 photos uploaded!

WunderBlogs® & News

Nearby

Air Quality

  Air Quality AQ Index Pollutant
Not available.

Snow Depth

Station Depth Elevation

Earthquake Activity

City Distance Mag. Time & Date
Minimum magnitude displayed is 2.5.

Coastal Water Temperatures

Place Temperature

Stations

Nearby Weather Stations

Station Location Temp. Windchill Dew Point Humidity Wind Precip. Elev Updated Type